createdAt,value
2023-01-12T00:03:28.009Z,1.56
2023-01-12T00:08:24.981Z,1.25
2023-01-12T00:13:22.095Z,1.72
2023-01-12T00:18:19.808Z,1.23
2023-01-12T00:23:16.844Z,1.63
2023-01-12T00:28:13.780Z,1.41
2023-01-12T00:33:10.817Z,1.79
2023-01-12T00:38:08.537Z,1.03
2023-01-12T00:43:23.699Z,1.61
2023-01-12T00:48:20.652Z,1.45
2023-01-12T00:53:18.657Z,1.83
2023-01-12T00:58:15.634Z,1.15
2023-01-12T01:03:12.528Z,1.79
2023-01-12T01:08:09.563Z,1.60
2023-01-12T01:13:07.259Z,1.35
2023-01-12T01:18:04.306Z,1.51
2023-01-12T01:23:01.251Z,1.33
2023-01-12T01:27:58.318Z,1.40
2023-01-12T01:32:56.079Z,1.75
2023-01-12T01:37:53.243Z,1.67
2023-01-12T01:42:50.369Z,1.02
2023-01-12T01:47:51.519Z,1.41
2023-01-12T01:52:53.020Z,1.41
2023-01-12T01:57:54.828Z,1.48
2023-01-12T02:02:52.987Z,1.23
2023-01-12T02:07:52.043Z,1.23
2023-01-12T02:13:08.423Z,1.41
2023-01-12T02:18:17.657Z,1.34
2023-01-12T02:23:41.402Z,1.38
2023-01-12T02:29:20.043Z,1.55
2023-01-12T02:34:28.124Z,1.42
2023-01-12T02:39:29.649Z,1.47
2023-01-12T02:44:32.892Z,0.99
2023-01-12T02:49:35.087Z,1.51
2023-01-12T02:54:35.078Z,1.09
2023-01-12T02:59:34.562Z,1.36
2023-01-12T03:04:33.168Z,1.30
2023-01-12T03:09:37.023Z,0.75
2023-01-12T03:14:37.355Z,1.26
2023-01-12T03:19:36.074Z,1.37
2023-01-12T03:24:37.776Z,1.42
2023-01-12T03:29:38.060Z,1.16
2023-01-12T03:34:37.489Z,1.30
2023-01-12T03:39:42.338Z,1.05
2023-01-12T03:44:46.545Z,1.28
2023-01-12T03:49:47.210Z,0.83
2023-01-12T03:54:47.495Z,1.18
2023-01-12T03:59:44.596Z,1.16
2023-01-12T04:04:41.833Z,0.81
2023-01-12T04:09:39.640Z,0.70
2023-01-12T04:14:36.734Z,0.73
2023-01-12T04:19:33.977Z,0.91
2023-01-12T04:24:34.511Z,0.42
2023-01-12T04:29:32.738Z,0.97
2023-01-12T04:34:30.465Z,1.22
2023-01-12T04:39:27.722Z,1.00
2023-01-12T04:44:24.882Z,1.19
2023-01-12T04:49:22.712Z,0.87
2023-01-12T04:54:19.652Z,1.02
2023-01-12T04:59:16.804Z,1.04
2023-01-12T05:04:14.824Z,1.33
2023-01-12T05:09:31.071Z,1.27
2023-01-12T05:14:31.009Z,0.85
2023-01-12T05:19:28.132Z,1.01
2023-01-12T05:24:27.264Z,1.07
2023-01-12T05:29:25.035Z,0.89
2023-01-12T05:34:25.838Z,0.47
2023-01-12T05:39:23.188Z,0.80
2023-01-12T05:44:21.451Z,0.60
2023-01-12T05:49:18.788Z,1.39
2023-01-12T05:54:17.362Z,1.63
2023-01-12T05:59:24.771Z,1.81
2023-01-12T06:04:27.706Z,1.30
2023-01-12T06:09:25.279Z,1.80
2023-01-12T06:14:30.580Z,1.28
2023-01-12T06:19:29.057Z,1.61
2023-01-12T06:24:33.509Z,1.70
2023-01-12T06:30:06.961Z,0.95
2023-01-12T06:35:27.098Z,1.10
2023-01-12T06:40:37.249Z,1.37
2023-01-12T06:45:45.466Z,1.71
2023-01-12T06:50:43.477Z,1.86
2023-01-12T06:55:49.583Z,2.01
2023-01-12T07:00:49.872Z,2.04
2023-01-12T07:05:53.778Z,1.34
2023-01-12T07:10:51.318Z,2.27
2023-01-12T07:15:48.682Z,2.24
2023-01-12T07:20:49.387Z,2.18
2023-01-12T07:25:47.501Z,2.35
2023-01-12T07:30:44.881Z,1.92
2023-01-12T07:36:17.913Z,2.46
2023-01-12T07:41:30.462Z,2.28
2023-01-12T07:46:38.208Z,2.44
2023-01-12T07:51:36.418Z,2.58
2023-01-12T07:56:44.229Z,1.81
2023-01-12T08:01:43.802Z,1.79
2023-01-12T08:06:40.900Z,1.98
2023-01-12T08:11:42.561Z,2.06
2023-01-12T08:16:46.570Z,1.94
2023-01-12T08:21:49.361Z,1.66
2023-01-12T08:26:51.090Z,1.91
2023-01-12T08:31:48.117Z,1.75
2023-01-12T08:36:45.029Z,2.26
2023-01-12T08:41:41.984Z,2.52
2023-01-12T08:46:46.975Z,1.46
2023-01-12T08:51:45.275Z,1.45
2023-01-12T08:56:42.441Z,2.33
2023-01-12T09:01:41.654Z,2.29
2023-01-12T09:06:40.906Z,1.80
2023-01-12T09:11:41.061Z,2.43
2023-01-12T09:16:39.580Z,1.89
2023-01-12T09:21:38.913Z,2.63
2023-01-12T09:26:39.166Z,2.12
2023-01-12T09:31:37.831Z,2.47
2023-01-12T09:36:37.121Z,2.45
2023-01-12T09:41:56.028Z,2.24
2023-01-12T09:46:59.876Z,2.12
2023-01-12T09:52:02.260Z,2.57
2023-01-12T09:57:08.096Z,2.62
2023-01-12T10:02:10.973Z,1.91
2023-01-12T10:07:15.052Z,2.72
2023-01-12T10:12:20.535Z,2.01
2023-01-12T10:17:38.591Z,2.55
2023-01-12T10:22:46.543Z,2.51
2023-01-12T10:27:45.848Z,2.60
2023-01-12T10:32:42.850Z,2.66
2023-01-12T10:37:44.938Z,2.66
2023-01-12T10:43:15.724Z,2.32
2023-01-12T10:48:21.056Z,2.33
2023-01-12T10:53:28.692Z,2.71
2023-01-12T10:58:29.153Z,2.74
2023-01-12T11:03:33.298Z,2.90
2023-01-12T11:08:32.108Z,2.80
2023-01-12T11:13:32.578Z,3.06
2023-01-12T11:18:38.723Z,2.50
2023-01-12T11:23:42.295Z,2.57
2023-01-12T11:28:51.029Z,3.44
2023-01-12T11:33:56.713Z,2.57
2023-01-12T11:39:01.841Z,3.05
2023-01-12T11:44:05.278Z,3.09
2023-01-12T11:49:10.793Z,3.28
2023-01-12T11:54:18.543Z,3.07
2023-01-12T11:59:24.795Z,3.25
2023-01-12T12:04:44.558Z,2.93
2023-01-12T12:10:15.103Z,3.17
2023-01-12T12:15:29.164Z,3.12
2023-01-12T12:20:34.101Z,2.64
2023-01-12T12:25:44.268Z,3.36
2023-01-12T12:31:01.241Z,3.10
2023-01-12T12:36:11.419Z,3.30
2023-01-12T12:41:40.186Z,3.01
2023-01-12T12:46:49.747Z,2.85
2023-01-12T12:51:47.230Z,3.30
2023-01-12T12:56:48.862Z,3.28
2023-01-12T13:01:56.136Z,3.50
2023-01-12T13:06:54.113Z,3.64
2023-01-12T13:11:53.669Z,3.09
2023-01-12T13:16:52.824Z,3.55
2023-01-12T13:21:57.425Z,3.67
2023-01-12T13:26:58.215Z,3.43
2023-01-12T13:31:58.853Z,3.64
2023-01-12T13:37:11.216Z,3.20
2023-01-12T13:42:35.313Z,3.38
2023-01-12T13:47:33.542Z,3.28
2023-01-12T13:52:33.436Z,2.90
2023-01-12T13:57:32.148Z,3.56
2023-01-12T14:02:31.612Z,3.55
2023-01-12T14:07:41.493Z,3.26
2023-01-12T14:12:56.456Z,3.56
2023-01-12T14:18:02.095Z,3.19
2023-01-12T14:23:20.757Z,3.31
2023-01-12T14:28:21.478Z,2.97
2023-01-12T14:33:20.508Z,3.62
2023-01-12T14:38:19.175Z,3.21
2023-01-12T14:43:35.463Z,3.61
2023-01-12T14:48:33.917Z,3.24
2023-01-12T14:53:38.517Z,3.22
2023-01-12T14:58:35.704Z,2.86
2023-01-12T15:03:43.091Z,3.41
2023-01-12T15:08:52.976Z,3.29
2023-01-12T15:13:55.918Z,3.40
2023-01-12T15:19:11.065Z,3.33
2023-01-12T15:24:39.193Z,3.17
2023-01-12T15:29:36.090Z,3.36
2023-01-12T15:34:33.985Z,3.17
2023-01-12T15:39:31.019Z,3.42
2023-01-12T15:44:27.932Z,3.53
2023-01-12T15:49:25.057Z,3.60
2023-01-12T15:54:22.728Z,3.52
2023-01-12T15:59:19.760Z,3.50
2023-01-12T16:09:40.528Z,2.93
2023-01-12T16:14:37.664Z,3.46
2023-01-12T16:19:40.611Z,3.60
2023-01-12T16:24:39.347Z,2.92
2023-01-12T16:29:36.530Z,3.56
2023-01-12T16:34:34.143Z,2.79
2023-01-12T16:40:18.118Z,2.92
2023-01-12T16:45:28.051Z,3.60
2023-01-12T16:50:26.629Z,2.95
2023-01-12T16:56:25.391Z,3.66
2023-01-12T17:01:26.347Z,3.66
2023-01-12T17:06:36.705Z,3.68
2023-01-12T17:11:41.658Z,3.53
2023-01-12T17:17:25.791Z,3.65
2023-01-12T17:22:41.893Z,3.57
2023-01-12T17:27:42.740Z,3.74
2023-01-12T17:32:56.231Z,3.53
2023-01-12T17:37:57.452Z,3.89
2023-01-12T17:43:25.459Z,3.92
2023-01-12T17:48:27.719Z,3.73
2023-01-12T17:53:25.556Z,3.92
2023-01-12T17:58:25.105Z,3.75
2023-01-12T18:03:41.354Z,3.97
2023-01-12T18:08:55.858Z,3.25
2023-01-12T18:13:53.958Z,4.04
2023-01-12T18:19:08.715Z,3.82
2023-01-12T18:24:12.365Z,3.44
2023-01-12T18:29:12.881Z,3.28
2023-01-12T18:34:11.834Z,4.08
2023-01-12T18:39:16.419Z,3.34
2023-01-12T18:44:17.082Z,3.66
2023-01-12T18:49:21.506Z,3.30
2023-01-12T18:54:32.141Z,3.86
2023-01-12T18:59:42.096Z,3.88
2023-01-12T19:05:16.046Z,3.26
2023-01-12T19:10:29.107Z,3.99
2023-01-12T19:15:51.221Z,3.98
2023-01-12T19:21:26.230Z,3.97
2023-01-12T19:26:44.115Z,3.51
2023-01-12T19:31:53.105Z,3.15
2023-01-12T19:36:59.007Z,3.81
2023-01-12T19:42:20.322Z,3.84
2023-01-12T19:47:17.867Z,4.02
2023-01-12T19:52:28.770Z,3.37
2023-01-12T19:57:26.451Z,3.40
2023-01-12T20:02:28.090Z,3.28
2023-01-12T20:07:30.118Z,4.06
2023-01-12T20:12:29.189Z,3.36
2023-01-12T20:17:27.031Z,4.01
2023-01-12T20:22:24.730Z,4.03
2023-01-12T20:27:24.993Z,3.81
2023-01-12T20:32:23.503Z,3.59
2023-01-12T20:37:26.450Z,3.53
2023-01-12T20:42:25.824Z,3.57
2023-01-12T20:47:36.389Z,3.77
2023-01-12T20:52:39.694Z,3.67
2023-01-12T20:57:47.404Z,4.08
2023-01-12T21:02:47.724Z,4.43
2023-01-12T21:07:48.676Z,4.28
2023-01-12T21:12:53.249Z,3.67
2023-01-12T21:17:53.297Z,3.93
2023-01-12T21:22:50.985Z,4.50
2023-01-12T21:27:50.690Z,4.48
2023-01-12T21:32:52.160Z,3.73
2023-01-12T21:37:52.603Z,3.68
2023-01-12T21:43:12.025Z,4.09
2023-01-12T21:48:15.712Z,4.21
2023-01-12T21:53:15.964Z,3.81
2023-01-12T21:58:20.085Z,4.12
2023-01-12T22:03:25.428Z,3.90
2023-01-12T22:08:22.836Z,4.34
2023-01-12T22:13:21.096Z,4.03
2023-01-12T22:18:20.519Z,4.10
2023-01-12T22:23:20.873Z,4.19
2023-01-12T22:28:18.419Z,4.13
2023-01-12T22:33:16.600Z,4.39
2023-01-12T22:38:14.089Z,4.45
2023-01-12T22:43:26.610Z,4.57
2023-01-12T22:48:25.574Z,3.84
2023-01-12T22:53:24.825Z,4.39
2023-01-12T22:58:22.077Z,4.08
2023-01-12T23:03:19.736Z,4.48
2023-01-12T23:08:20.143Z,4.46
2023-01-12T23:13:19.975Z,4.62
2023-01-12T23:18:19.715Z,4.31
2023-01-12T23:23:18.264Z,4.36
2023-01-12T23:28:17.365Z,4.47
2023-01-12T23:33:14.855Z,4.42
2023-01-12T23:38:15.541Z,3.81
2023-01-12T23:43:13.800Z,4.58
2023-01-12T23:48:10.949Z,4.14
2023-01-12T23:53:08.171Z,4.25
2023-01-12T23:58:06.016Z,4.41
